Time;durP1;ratioP1;P1;durP2;ratioP2;P2;SDS_P1;SDS_P2;PMS_P1;PMS_P2;Temp;Humidity;BMP_temperature;BMP_pressure;BME280_temperature;BME280_humidity;BME280_pressure;Samples;Min_cycle;Max_cycle;Signal;HPM_P1;HPM_P2
2022/11/14 00:03:33;;;;;;;7.80;5.60;;;;;;;;;;10186172;28;20044;-82
2022/11/14 00:08:57;;;;;;;8.73;5.90;;;;;;;;;;10192952;28;20051;-82
2022/11/14 00:14:19;;;;;;;9.05;5.90;;;;;;;;;;10202513;28;20040;-81
2022/11/14 00:19:41;;;;;;;6.93;4.50;;;;;;;;;;10188706;28;20052;-82
2022/11/14 00:25:06;;;;;;;6.03;4.07;;;;;;;;;;10212505;29;20118;-82
2022/11/14 00:30:28;;;;;;;5.15;3.50;;;;;;;;;;10208808;28;20063;-81
2022/11/14 00:35:52;;;;;;;5.70;4.07;;;;;;;;;;10187508;28;20610;-82
2022/11/14 00:41:15;;;;;;;3.95;3.22;;;;;;;;;;10200085;28;20665;-81
2022/11/14 00:46:38;;;;;;;5.55;3.47;;;;;;;;;;10200236;28;20056;-82
2022/11/14 00:52:00;;;;;;;6.22;3.58;;;;;;;;;;10187785;28;20059;-82
2022/11/14 00:57:23;;;;;;;5.70;3.47;;;;;;;;;;10179378;28;20111;-82
2022/11/14 01:08:23;;;;;;;3.50;2.50;;;;;;;;;;11047379;23;20046;-83
2022/11/14 01:13:48;;;;;;;3.85;2.70;;;;;;;;;;10259175;28;20121;-83
2022/11/14 01:19:10;;;;;;;3.47;2.65;;;;;;;;;;10263965;28;20684;-83
2022/11/14 01:24:32;;;;;;;2.83;2.15;;;;;;;;;;10263723;28;20042;-83
2022/11/14 01:29:56;;;;;;;2.92;2.10;;;;;;;;;;10263209;28;20137;-82
2022/11/14 01:35:18;;;;;;;3.10;2.45;;;;;;;;;;10261739;28;20046;-82
2022/11/14 01:40:42;;;;;;;3.03;2.33;;;;;;;;;;10259518;28;20047;-82
2022/11/14 01:46:09;;;;;;;4.85;2.33;;;;;;;;;;10261834;28;20055;-82
2022/11/14 01:51:35;;;;;;;3.42;2.45;;;;;;;;;;10278286;28;20603;-82
2022/11/14 01:56:59;;;;;;;5.25;3.13;;;;;;;;;;10595437;23;20074;-83
2022/11/14 02:02:25;;;;;;;5.28;3.10;;;;;;;;;;10226490;28;20051;-83
2022/11/14 02:07:47;;;;;;;4.30;2.72;;;;;;;;;;10223298;28;20531;-82
2022/11/14 02:13:09;;;;;;;3.28;2.20;;;;;;;;;;10199932;29;20051;-82
2022/11/14 02:18:33;;;;;;;3.30;2.28;;;;;;;;;;10204645;28;20447;-82
2022/11/14 02:23:56;;;;;;;4.50;2.22;;;;;;;;;;10192557;28;20040;-81
2022/11/14 02:29:19;;;;;;;2.78;1.98;;;;;;;;;;10216056;29;20047;-81
2022/11/14 02:34:41;;;;;;;2.83;2.10;;;;;;;;;;10208038;28;20044;-82
2022/11/14 02:40:05;;;;;;;3.67;2.20;;;;;;;;;;10158871;29;20052;-82
2022/11/14 02:45:28;;;;;;;2.97;2.38;;;;;;;;;;10167186;28;20555;-82
2022/11/14 02:50:50;;;;;;;3.85;2.30;;;;;;;;;;10175443;28;20060;-82
2022/11/14 02:56:13;;;;;;;2.50;2.13;;;;;;;;;;10161676;28;20040;-82
2022/11/14 03:01:36;;;;;;;3.20;2.42;;;;;;;;;;10169957;28;20377;-84
2022/11/14 03:06:58;;;;;;;2.90;2.35;;;;;;;;;;10153993;28;20060;-83
2022/11/14 03:12:22;;;;;;;4.57;3.10;;;;;;;;;;10166354;28;20126;-83
2022/11/14 03:17:44;;;;;;;3.42;2.38;;;;;;;;;;10155762;28;20052;-83
2022/11/14 03:23:06;;;;;;;4.97;2.97;;;;;;;;;;10161662;28;20131;-83
2022/11/14 03:28:29;;;;;;;4.40;2.70;;;;;;;;;;10162893;28;20134;-83
2022/11/14 03:33:52;;;;;;;6.57;2.95;;;;;;;;;;10163139;29;20075;-83
2022/11/14 03:39:14;;;;;;;5.47;3.10;;;;;;;;;;10155590;28;20428;-82
2022/11/14 03:44:37;;;;;;;4.07;2.65;;;;;;;;;;10162527;28;20048;-83
2022/11/14 03:49:59;;;;;;;4.10;2.35;;;;;;;;;;10149904;29;20043;-83
2022/11/14 03:55:22;;;;;;;4.88;2.97;;;;;;;;;;10156392;28;20422;-81
2022/11/14 04:00:45;;;;;;;4.40;2.88;;;;;;;;;;10171212;28;20067;-82
2022/11/14 04:06:07;;;;;;;4.88;2.90;;;;;;;;;;10165958;28;20052;-82
2022/11/14 04:11:29;;;;;;;3.33;2.40;;;;;;;;;;10149910;28;20463;-81
2022/11/14 04:16:53;;;;;;;5.30;2.97;;;;;;;;;;10171332;28;20106;-82
2022/11/14 04:22:15;;;;;;;4.18;2.67;;;;;;;;;;10176425;28;20059;-82
2022/11/14 04:27:38;;;;;;;3.42;2.85;;;;;;;;;;10163486;28;20040;-82
2022/11/14 04:33:01;;;;;;;2.72;2.10;;;;;;;;;;10154954;28;20048;-82
2022/11/14 04:38:23;;;;;;;3.60;2.45;;;;;;;;;;10175373;28;20047;-82
2022/11/14 04:43:45;;;;;;;4.85;2.40;;;;;;;;;;10151365;28;20048;-82
2022/11/14 04:49:11;;;;;;;4.78;2.78;;;;;;;;;;10167940;28;20055;-82
2022/11/14 04:54:34;;;;;;;5.70;3.53;;;;;;;;;;10168306;28;20751;-83
2022/11/14 04:59:55;;;;;;;5.25;3.90;;;;;;;;;;10156584;29;20055;-82
2022/11/14 05:05:19;;;;;;;7.72;4.10;;;;;;;;;;10153207;28;20040;-88
2022/11/14 05:10:44;;;;;;;6.82;4.70;;;;;;;;;;10167599;28;20313;-84
2022/11/14 05:16:06;;;;;;;7.20;4.68;;;;;;;;;;10135509;28;20056;-84
2022/11/14 05:21:30;;;;;;;7.70;4.07;;;;;;;;;;10162588;28;20051;-85
2022/11/14 05:26:52;;;;;;;8.13;4.97;;;;;;;;;;10143296;28;20609;-84
2022/11/14 05:32:14;;;;;;;7.70;4.88;;;;;;;;;;10159275;28;20127;-83
2022/11/14 05:37:38;;;;;;;9.63;6.13;;;;;;;;;;10155637;28;20071;-83
2022/11/14 05:43:00;;;;;;;10.32;6.35;;;;;;;;;;10156468;28;20051;-84
2022/11/14 05:48:22;;;;;;;7.40;4.53;;;;;;;;;;10169228;28;20048;-83
2022/11/14 05:53:46;;;;;;;7.43;5.15;;;;;;;;;;10174753;28;20285;-84
2022/11/14 05:59:08;;;;;;;9.55;6.43;;;;;;;;;;10168427;28;20068;-83
2022/11/14 06:04:30;;;;;;;11.88;7.30;;;;;;;;;;10174980;28;20043;-83
2022/11/14 06:09:54;;;;;;;10.35;6.22;;;;;;;;;;10178359;29;20040;-86
2022/11/14 06:15:16;;;;;;;12.48;6.05;;;;;;;;;;10166965;28;20051;-85
2022/11/14 06:20:38;;;;;;;10.48;6.05;;;;;;;;;;10152816;28;20060;-85
2022/11/14 06:26:03;;;;;;;13.00;7.05;;;;;;;;;;10140094;28;20056;-85
2022/11/14 06:31:26;;;;;;;9.20;6.07;;;;;;;;;;10137802;29;20064;-85
2022/11/14 06:36:48;;;;;;;11.55;6.68;;;;;;;;;;10134805;28;20041;-81
2022/11/14 06:42:12;;;;;;;11.60;6.25;;;;;;;;;;10155564;28;20056;-84
2022/11/14 06:47:34;;;;;;;9.35;5.28;;;;;;;;;;10163526;28;20051;-83
2022/11/14 06:52:58;;;;;;;9.98;5.65;;;;;;;;;;10187132;28;20511;-84
2022/11/14 06:58:22;;;;;;;10.30;5.32;;;;;;;;;;10189049;28;20111;-82
2022/11/14 07:03:45;;;;;;;10.77;6.13;;;;;;;;;;10160788;28;20060;-84
2022/11/14 07:09:10;;;;;;;11.65;6.15;;;;;;;;;;10182447;28;20044;-85
2022/11/14 07:14:33;;;;;;;8.18;5.18;;;;;;;;;;10187987;28;20415;-86
2022/11/14 07:19:55;;;;;;;8.88;5.03;;;;;;;;;;10175653;29;20155;-85
2022/11/14 07:25:17;;;;;;;9.32;5.35;;;;;;;;;;10187077;28;20047;-83
2022/11/14 07:30:42;;;;;;;7.72;4.63;;;;;;;;;;10192634;28;20052;-82
2022/11/14 07:36:05;;;;;;;7.82;4.93;;;;;;;;;;10174822;28;20269;-81
2022/11/14 07:41:28;;;;;;;6.10;4.30;;;;;;;;;;10179123;28;20150;-83
2022/11/14 07:46:51;;;;;;;8.50;4.90;;;;;;;;;;10182859;28;20051;-84
2022/11/14 07:52:13;;;;;;;8.45;4.55;;;;;;;;;;10188370;28;20430;-84
2022/11/14 07:57:35;;;;;;;8.98;5.28;;;;;;;;;;10179495;28;20040;-83
2022/11/14 08:03:02;;;;;;;10.18;5.25;;;;;;;;;;10171169;28;20048;-84
2022/11/14 08:08:24;;;;;;;12.95;7.35;;;;;;;;;;10181001;28;20649;-83
2022/11/14 08:13:46;;;;;;;8.93;5.88;;;;;;;;;;10185914;28;20047;-83
2022/11/14 08:19:09;;;;;;;9.07;5.38;;;;;;;;;;10146347;29;20416;-83
2022/11/14 08:24:31;;;;;;;8.65;5.00;;;;;;;;;;10171723;28;20040;-84
2022/11/14 08:29:53;;;;;;;8.32;5.57;;;;;;;;;;10165094;29;20043;-83
2022/11/14 08:35:17;;;;;;;19.25;10.88;;;;;;;;;;10168499;28;20052;-83
2022/11/14 08:40:39;;;;;;;12.45;6.15;;;;;;;;;;10175425;28;20070;-83
2022/11/14 08:46:03;;;;;;;9.40;5.13;;;;;;;;;;10170412;28;20056;-83
2022/11/14 08:51:26;;;;;;;13.48;7.60;;;;;;;;;;10152498;28;20531;-84
2022/11/14 08:56:49;;;;;;;10.55;6.50;;;;;;;;;;10175415;28;20039;-83
2022/11/14 09:02:12;;;;;;;14.10;8.32;;;;;;;;;;10169930;28;20528;-84
2022/11/14 09:07:35;;;;;;;13.85;7.65;;;;;;;;;;10165649;28;20517;-83
2022/11/14 09:12:58;;;;;;;14.85;8.32;;;;;;;;;;10162166;28;20043;-83
2022/11/14 09:18:20;;;;;;;11.25;6.40;;;;;;;;;;10157889;28;20048;-83
2022/11/14 09:23:46;;;;;;;13.40;8.23;;;;;;;;;;10172028;28;20047;-83
2022/11/14 09:29:09;;;;;;;19.90;11.30;;;;;;;;;;10170222;29;20067;-85
2022/11/14 09:34:31;;;;;;;18.90;9.75;;;;;;;;;;10148797;28;20052;-84
2022/11/14 09:39:54;;;;;;;14.02;7.70;;;;;;;;;;10147882;29;20040;-84
2022/11/14 09:45:17;;;;;;;13.05;7.70;;;;;;;;;;10172765;28;20052;-85
2022/11/14 09:50:45;;;;;;;15.20;8.70;;;;;;;;;;10167951;28;20605;-84
2022/11/14 09:56:12;;;;;;;21.08;11.27;;;;;;;;;;10162122;28;20083;-85
2022/11/14 10:01:45;;;;;;;16.45;8.77;;;;;;;;;;10176070;28;20048;-87
2022/11/14 10:07:17;;;;;;;12.43;7.38;;;;;;;;;;10132441;28;20044;-83
2022/11/14 10:12:44;;;;;;;18.42;8.77;;;;;;;;;;10152696;29;20100;-83
2022/11/14 10:18:18;;;;;;;12.82;7.10;;;;;;;;;;10156315;28;20044;-83
2022/11/14 10:23:47;;;;;;;11.52;6.45;;;;;;;;;;10143942;29;20491;-83
2022/11/14 10:29:37;;;;;;;10.38;5.80;;;;;;;;;;10157051;29;20500;-83
2022/11/14 10:35:04;;;;;;;11.95;7.05;;;;;;;;;;10127300;29;20512;-83
2022/11/14 10:40:33;;;;;;;12.88;8.15;;;;;;;;;;10141510;28;20171;-83
2022/11/14 10:46:01;;;;;;;8.63;5.15;;;;;;;;;;10163644;28;20515;-83
2022/11/14 10:51:31;;;;;;;9.20;6.13;;;;;;;;;;10159404;28;20055;-83
2022/11/14 10:56:55;;;;;;;9.50;6.38;;;;;;;;;;10174076;28;20039;-83
2022/11/14 11:02:18;;;;;;;11.57;6.25;;;;;;;;;;10188145;28;20536;-82
2022/11/14 11:13:40;;;;;;;9.90;6.30;;;;;;;;;;10166216;28;20414;-83
2022/11/14 11:19:15;;;;;;;;;;;;;;;;;;10164906;28;20044;-83
2022/11/14 11:24:38;;;;;;;4.75;3.33;;;;;;;;;;10164088;28;19923;-83
2022/11/14 11:30:19;;;;;;;10.02;5.82;;;;;;;;;;10179251;29;20051;-82
2022/11/14 11:35:43;;;;;;;10.23;6.43;;;;;;;;;;10146144;28;20131;-83
2022/11/14 11:41:14;;;;;;;8.05;5.18;;;;;;;;;;10168447;28;20051;-82
2022/11/14 11:46:45;;;;;;;8.32;5.18;;;;;;;;;;10152886;29;20044;-82
2022/11/14 11:52:15;;;;;;;6.88;4.53;;;;;;;;;;10165644;28;20052;-82
2022/11/14 11:57:43;;;;;;;9.20;5.63;;;;;;;;;;10185401;28;20122;-82
2022/11/14 12:03:11;;;;;;;7.35;5.00;;;;;;;;;;10187409;28;20051;-82
2022/11/14 12:08:43;;;;;;;9.27;6.50;;;;;;;;;;10159935;28;20055;-84
2022/11/14 12:14:26;;;;;;;8.23;5.20;;;;;;;;;;10178719;28;20055;-83
2022/11/14 12:20:21;;;;;;;8.98;5.50;;;;;;;;;;10174358;28;20040;-84
2022/11/14 12:26:06;;;;;;;9.55;6.13;;;;;;;;;;10184436;28;20075;-84
2022/11/14 12:31:32;;;;;;;8.18;5.35;;;;;;;;;;10182406;28;20469;-84
2022/11/14 12:36:54;;;;;;;9.82;5.57;;;;;;;;;;10166739;28;20661;-84
2022/11/14 12:42:21;;;;;;;9.32;5.38;;;;;;;;;;10159323;28;20649;-84
2022/11/14 12:48:20;;;;;;;11.13;7.00;;;;;;;;;;10178804;28;20432;-85
2022/11/14 12:53:43;;;;;;;10.88;6.38;;;;;;;;;;10169161;28;20039;-83
2022/11/14 12:59:34;;;;;;;12.95;7.13;;;;;;;;;;10170323;28;20044;-82
2022/11/14 13:05:18;;;;;;;14.93;8.25;;;;;;;;;;10176019;29;20052;-84
2022/11/14 13:10:41;;;;;;;13.77;7.47;;;;;;;;;;10154536;28;20535;-85
2022/11/14 13:22:18;;;;;;;10.35;6.60;;;;;;;;;;10179658;28;20051;-83
2022/11/14 13:27:40;;;;;;;9.80;6.30;;;;;;;;;;10158927;28;20520;-85
2022/11/14 13:33:41;;;;;;;12.05;7.28;;;;;;;;;;10174713;28;20052;-85
2022/11/14 13:39:20;;;;;;;10.77;6.35;;;;;;;;;;10172133;29;20075;-84
2022/11/14 13:45:25;;;;;;;7.85;5.80;;;;;;;;;;10184616;28;20087;-85
2022/11/14 13:50:51;;;;;;;8.57;5.10;;;;;;;;;;10181770;28;20044;-84
2022/11/14 13:56:25;;;;;;;9.80;4.90;;;;;;;;;;10184970;28;20051;-83
2022/11/14 14:02:02;;;;;;;7.18;4.32;;;;;;;;;;10173834;28;20056;-83
2022/11/14 14:07:37;;;;;;;8.35;5.35;;;;;;;;;;10163196;28;20424;-82
2022/11/14 14:13:11;;;;;;;8.15;5.00;;;;;;;;;;10180723;28;20048;-82
2022/11/14 14:18:49;;;;;;;10.20;5.13;;;;;;;;;;10168178;28;20047;-83
2022/11/14 14:24:25;;;;;;;8.68;5.25;;;;;;;;;;10146952;28;20056;-82
2022/11/14 14:29:57;;;;;;;7.18;4.72;;;;;;;;;;10151375;28;20978;-82
2022/11/14 14:35:22;;;;;;;7.03;4.07;;;;;;;;;;10168859;29;20051;-84
2022/11/14 14:40:47;;;;;;;6.97;3.83;;;;;;;;;;10133657;28;20453;-83
2022/11/14 14:46:09;;;;;;;4.57;3.20;;;;;;;;;;10150781;28;20118;-84
2022/11/14 14:51:32;;;;;;;3.60;2.80;;;;;;;;;;10185641;28;20055;-84
2022/11/14 14:57:00;;;;;;;3.08;2.50;;;;;;;;;;10155743;28;20044;-84
2022/11/14 15:02:23;;;;;;;4.45;3.05;;;;;;;;;;10142374;28;20044;-83
2022/11/14 15:07:45;;;;;;;3.38;2.83;;;;;;;;;;10168560;28;20551;-82
2022/11/14 15:13:09;;;;;;;4.03;2.92;;;;;;;;;;10141303;28;20056;-83
2022/11/14 15:18:32;;;;;;;4.88;3.20;;;;;;;;;;10179483;28;20047;-84
2022/11/14 15:24:02;;;;;;;3.17;2.72;;;;;;;;;;10179137;28;20043;-83
2022/11/14 15:29:30;;;;;;;4.47;3.03;;;;;;;;;;10186506;28;20452;-83
2022/11/14 15:35:09;;;;;;;4.20;2.92;;;;;;;;;;10160020;29;20079;-82
2022/11/14 15:40:32;;;;;;;4.65;3.20;;;;;;;;;;10187369;28;20048;-83
2022/11/14 15:45:59;;;;;;;4.00;3.50;;;;;;;;;;10176864;28;20091;-84
2022/11/14 15:51:43;;;;;;;7.70;5.18;;;;;;;;;;10182691;28;20055;-83
2022/11/14 15:57:13;;;;;;;6.93;4.07;;;;;;;;;;10166780;28;20039;-84
2022/11/14 16:02:43;;;;;;;6.25;3.92;;;;;;;;;;10185975;28;20043;-84
2022/11/14 16:08:09;;;;;;;5.82;4.10;;;;;;;;;;10169860;28;20520;-83
2022/11/14 16:13:31;;;;;;;4.90;3.22;;;;;;;;;;10168098;28;20039;-83
2022/11/14 16:18:54;;;;;;;5.32;3.30;;;;;;;;;;10161254;29;20048;-83
2022/11/14 16:24:18;;;;;;;6.78;4.53;;;;;;;;;;10179357;28;20428;-84
2022/11/14 16:29:40;;;;;;;4.95;3.40;;;;;;;;;;10181939;28;20044;-83
2022/11/14 16:35:04;;;;;;;4.45;2.75;;;;;;;;;;10173689;29;20464;-83
2022/11/14 16:40:27;;;;;;;5.55;3.38;;;;;;;;;;10164613;28;20068;-84
2022/11/14 16:45:49;;;;;;;3.03;2.42;;;;;;;;;;10163360;28;20060;-83
2022/11/14 16:51:13;;;;;;;6.43;3.55;;;;;;;;;;10160427;28;20575;-83
2022/11/14 16:56:42;;;;;;;3.00;2.47;;;;;;;;;;10158997;28;20551;-83
2022/11/14 17:02:04;;;;;;;4.10;2.80;;;;;;;;;;10163477;28;20063;-84
2022/11/14 17:07:31;;;;;;;3.72;2.88;;;;;;;;;;10163649;28;20048;-83
2022/11/14 17:12:53;;;;;;;3.33;2.33;;;;;;;;;;10158257;29;20040;-84
2022/11/14 17:18:16;;;;;;;3.28;2.30;;;;;;;;;;10163706;28;20048;-84
2022/11/14 17:23:39;;;;;;;3.08;2.30;;;;;;;;;;10171323;28;20055;-83
2022/11/14 17:29:02;;;;;;;2.55;2.33;;;;;;;;;;10174648;28;20685;-84
2022/11/14 17:34:24;;;;;;;3.10;2.22;;;;;;;;;;10145082;28;20040;-84
2022/11/14 17:39:47;;;;;;;3.28;2.22;;;;;;;;;;10163021;28;20051;-84
2022/11/14 17:45:10;;;;;;;3.00;2.17;;;;;;;;;;10152348;28;20057;-84
2022/11/14 17:50:32;;;;;;;3.72;2.17;;;;;;;;;;10157221;28;20594;-84
2022/11/14 17:55:59;;;;;;;3.20;2.40;;;;;;;;;;10160437;29;20043;-84
2022/11/14 18:01:24;;;;;;;3.22;2.47;;;;;;;;;;10159759;28;20059;-84
2022/11/14 18:06:46;;;;;;;3.88;2.40;;;;;;;;;;10151239;28;20473;-85
2022/11/14 18:12:09;;;;;;;2.40;1.70;;;;;;;;;;10154852;28;20059;-85
2022/11/14 18:17:32;;;;;;;2.22;1.85;;;;;;;;;;10158636;28;20048;-85
2022/11/14 18:22:54;;;;;;;3.92;2.38;;;;;;;;;;10172878;28;20043;-87
2022/11/14 18:28:17;;;;;;;3.55;2.80;;;;;;;;;;10188079;28;20433;-87
2022/11/14 18:33:41;;;;;;;4.13;2.20;;;;;;;;;;10169568;28;20041;-86
2022/11/14 18:39:03;;;;;;;2.97;2.42;;;;;;;;;;10153493;28;20040;-86
2022/11/14 18:44:26;;;;;;;4.45;2.60;;;;;;;;;;10183659;28;20036;-86
2022/11/14 18:49:48;;;;;;;5.60;3.38;;;;;;;;;;10184463;28;20052;-86
2022/11/14 18:55:10;;;;;;;5.93;3.10;;;;;;;;;;10181856;28;20060;-84
2022/11/14 19:00:34;;;;;;;3.55;2.90;;;;;;;;;;10178898;28;20067;-85
2022/11/14 19:06:01;;;;;;;4.13;2.95;;;;;;;;;;10170235;28;20048;-85
2022/11/14 19:17:01;;;;;;;5.43;2.85;;;;;;;;;;10133255;28;20416;-85
2022/11/14 19:22:23;;;;;;;4.60;3.15;;;;;;;;;;10182511;28;20044;-84
2022/11/14 19:27:50;;;;;;;8.90;3.83;;;;;;;;;;10153897;28;20052;-83
2022/11/14 19:33:14;;;;;;;4.55;3.33;;;;;;;;;;10161991;28;20594;-86
2022/11/14 19:38:36;;;;;;;5.50;3.92;;;;;;;;;;10169471;28;20048;-87
2022/11/14 19:43:59;;;;;;;5.90;3.83;;;;;;;;;;10169167;29;20044;-86
2022/11/14 19:49:22;;;;;;;5.82;3.85;;;;;;;;;;10183143;28;20086;-86
2022/11/14 19:54:46;;;;;;;6.63;4.13;;;;;;;;;;10162730;28;20045;-86
2022/11/14 20:00:09;;;;;;;7.53;4.72;;;;;;;;;;10128689;29;20048;-84
2022/11/14 20:05:33;;;;;;;5.53;3.50;;;;;;;;;;10132420;28;20460;-86
2022/11/14 20:10:56;;;;;;;5.35;3.83;;;;;;;;;;10128194;28;20056;-85
2022/11/14 20:16:19;;;;;;;6.55;3.42;;;;;;;;;;10137605;29;20681;-84
2022/11/14 20:21:43;;;;;;;6.18;3.60;;;;;;;;;;10136304;28;20052;-85
2022/11/14 20:27:05;;;;;;;4.72;3.40;;;;;;;;;;10134509;28;20525;-85
2022/11/14 20:32:27;;;;;;;4.82;2.90;;;;;;;;;;10142245;29;20068;-85
2022/11/14 20:37:51;;;;;;;3.70;3.00;;;;;;;;;;10133913;28;20403;-85
2022/11/14 20:43:13;;;;;;;3.85;2.72;;;;;;;;;;10158250;28;20044;-86
2022/11/14 20:48:35;;;;;;;4.47;3.15;;;;;;;;;;10158647;28;20526;-86
2022/11/14 20:53:58;;;;;;;5.50;3.00;;;;;;;;;;10166342;28;20524;-85
2022/11/14 20:59:20;;;;;;;4.55;2.72;;;;;;;;;;10157615;28;20044;-86
2022/11/14 21:04:43;;;;;;;4.18;2.67;;;;;;;;;;10142840;28;20683;-85
2022/11/14 21:15:47;;;;;;;4.90;2.47;;;;;;;;;;10128871;29;20052;-86
2022/11/14 21:21:11;;;;;;;3.35;2.17;;;;;;;;;;10124559;28;20048;-87
2022/11/14 21:26:36;;;;;;;3.65;2.15;;;;;;;;;;10136797;29;20049;-87
2022/11/14 21:31:58;;;;;;;3.70;2.28;;;;;;;;;;10136467;29;20044;-87
2022/11/14 21:37:20;;;;;;;5.53;2.53;;;;;;;;;;10145348;28;20460;-87
2022/11/14 21:42:44;;;;;;;3.88;2.47;;;;;;;;;;10143032;29;20546;-85
2022/11/14 21:48:06;;;;;;;3.85;2.30;;;;;;;;;;10149527;29;20044;-85
2022/11/14 21:53:28;;;;;;;4.00;2.38;;;;;;;;;;10141553;28;20048;-86
2022/11/14 21:59:11;;;;;;;3.10;2.58;;;;;;;;;;10143080;29;20095;-85
2022/11/14 22:04:33;;;;;;;3.30;2.38;;;;;;;;;;10128315;28;20111;-84
2022/11/14 22:09:55;;;;;;;3.08;2.13;;;;;;;;;;10131987;29;20806;-86
2022/11/14 22:15:19;;;;;;;2.72;1.85;;;;;;;;;;10156321;28;20088;-86
2022/11/14 22:20:41;;;;;;;3.10;2.40;;;;;;;;;;10151509;29;20529;-86
2022/11/14 22:26:04;;;;;;;3.67;2.17;;;;;;;;;;10149845;29;20702;-85
2022/11/14 22:31:27;;;;;;;3.00;2.05;;;;;;;;;;10146622;29;20052;-85
2022/11/14 22:36:50;;;;;;;2.67;1.65;;;;;;;;;;10130277;29;20516;-87
2022/11/14 22:42:11;;;;;;;2.22;1.80;;;;;;;;;;10136471;29;20727;-86
2022/11/14 22:47:35;;;;;;;3.72;2.30;;;;;;;;;;10150395;29;20048;-85
2022/11/14 22:52:57;;;;;;;3.90;2.83;;;;;;;;;;10139035;29;20040;-86
2022/11/14 22:58:19;;;;;;;2.38;1.90;;;;;;;;;;10140563;29;20052;-86
2022/11/14 23:03:43;;;;;;;8.73;2.70;;;;;;;;;;10136319;29;20104;-86
2022/11/14 23:09:05;;;;;;;2.47;2.10;;;;;;;;;;10134328;29;20052;-85
2022/11/14 23:14:27;;;;;;;1.40;1.30;;;;;;;;;;10140556;29;20645;-86
2022/11/14 23:19:51;;;;;;;1.80;1.38;;;;;;;;;;10180108;28;20072;-86
2022/11/14 23:25:13;;;;;;;1.67;1.23;;;;;;;;;;10192937;29;20418;-87
2022/11/14 23:30:35;;;;;;;1.38;1.20;;;;;;;;;;10188037;28;20709;-87
2022/11/14 23:35:59;;;;;;;1.85;1.25;;;;;;;;;;10175212;28;20052;-86
2022/11/14 23:41:24;;;;;;;2.63;1.60;;;;;;;;;;10173676;29;20052;-86
2022/11/14 23:46:46;;;;;;;1.92;1.27;;;;;;;;;;10221319;28;20145;-84
2022/11/14 23:52:09;;;;;;;2.63;2.03;;;;;;;;;;10213297;28;20086;-85
2022/11/14 23:57:31;;;;;;;2.40;1.95;;;;;;;;;;10220607;28;20419;-86
